createdAt,value
2018-06-21T00:01:19.112Z,19.60
2018-06-21T00:03:48.256Z,19.50
2018-06-21T00:08:46.335Z,19.30
2018-06-21T00:11:15.500Z,19.30
2018-06-21T00:13:44.656Z,19.30
2018-06-21T00:16:13.806Z,19.30
2018-06-21T00:18:42.960Z,19.30
2018-06-21T00:21:12.119Z,19.20
2018-06-21T00:23:41.267Z,19.20
2018-06-21T00:26:10.412Z,19.20
2018-06-21T00:28:39.561Z,19.20
2018-06-21T00:31:08.903Z,19.20
2018-06-21T00:33:38.121Z,19.10
2018-06-21T00:36:07.294Z,19.10
2018-06-21T00:38:36.444Z,19.10
2018-06-21T00:41:05.626Z,19.00
2018-06-21T00:43:34.769Z,19.00
2018-06-21T00:46:03.929Z,19.00
2018-06-21T00:48:33.091Z,18.90
2018-06-21T00:51:02.246Z,18.90
2018-06-21T00:53:31.403Z,18.80
2018-06-21T00:56:15.370Z,18.80
2018-06-21T00:58:45.235Z,18.80
2018-06-21T01:01:15.263Z,18.80
2018-06-21T01:06:14.136Z,18.80
2018-06-21T01:08:43.379Z,18.80
2018-06-21T01:11:12.540Z,18.70
2018-06-21T01:13:41.695Z,18.80
2018-06-21T01:16:10.853Z,18.80
2018-06-21T01:18:40.005Z,18.80
2018-06-21T01:21:09.327Z,18.80
2018-06-21T01:23:38.471Z,18.70
2018-06-21T01:26:07.636Z,18.70
2018-06-21T01:28:36.791Z,18.70
2018-06-21T01:31:05.952Z,18.70
2018-06-21T01:33:35.104Z,18.70
2018-06-21T01:36:04.265Z,18.60
2018-06-21T01:38:33.424Z,18.50
2018-06-21T01:41:02.584Z,18.50
2018-06-21T01:43:31.742Z,18.40
2018-06-21T01:46:00.884Z,18.40
2018-06-21T01:48:30.039Z,18.40
2018-06-21T01:50:59.184Z,18.40
2018-06-21T01:53:28.348Z,18.40
2018-06-21T01:55:57.499Z,18.40
2018-06-21T01:58:26.662Z,18.40
2018-06-21T02:00:55.819Z,18.30
2018-06-21T02:03:24.970Z,18.20
2018-06-21T02:05:54.117Z,18.20
2018-06-21T02:08:23.275Z,18.20
2018-06-21T02:10:52.465Z,18.20
2018-06-21T02:13:21.616Z,18.20
2018-06-21T02:15:50.764Z,18.20
2018-06-21T02:18:19.919Z,18.10
2018-06-21T02:20:49.060Z,18.10
2018-06-21T02:23:18.579Z,18.10
2018-06-21T02:25:47.728Z,18.10
2018-06-21T02:28:16.884Z,18.10
2018-06-21T02:30:46.041Z,18.10
2018-06-21T02:33:15.183Z,18.00
2018-06-21T02:35:44.363Z,18.00
2018-06-21T02:38:13.524Z,18.00
2018-06-21T02:40:42.685Z,17.90
2018-06-21T02:43:11.836Z,17.90
2018-06-21T02:45:41.013Z,17.90
2018-06-21T02:48:10.180Z,17.90
2018-06-21T02:50:39.338Z,17.90
2018-06-21T02:53:08.493Z,17.80
2018-06-21T02:55:37.643Z,17.60
2018-06-21T03:00:35.764Z,17.60
2018-06-21T03:03:04.899Z,17.60
2018-06-21T03:05:34.096Z,17.60
2018-06-21T03:08:03.408Z,17.70
2018-06-21T03:10:32.553Z,17.90
2018-06-21T03:13:01.708Z,17.90
2018-06-21T03:17:59.781Z,17.90
2018-06-21T03:20:28.934Z,18.10
2018-06-21T03:22:58.092Z,18.20
2018-06-21T03:25:27.244Z,18.10
2018-06-21T03:27:56.408Z,18.10
2018-06-21T03:30:25.574Z,18.20
2018-06-21T03:32:54.751Z,18.10
2018-06-21T03:35:23.917Z,18.10
2018-06-21T03:37:53.059Z,18.20
2018-06-21T03:40:22.221Z,18.30
2018-06-21T03:42:51.383Z,18.50
2018-06-21T03:45:20.536Z,18.60
2018-06-21T03:47:49.693Z,18.70
2018-06-21T03:50:18.843Z,18.90
2018-06-21T03:52:47.996Z,18.90
2018-06-21T03:55:17.155Z,18.80
2018-06-21T03:57:46.312Z,18.70
2018-06-21T04:00:15.451Z,18.80
2018-06-21T04:02:44.599Z,18.80
2018-06-21T04:05:13.751Z,18.90
2018-06-21T04:07:42.907Z,19.10
2018-06-21T04:10:12.047Z,19.20
2018-06-21T04:12:41.199Z,19.00
2018-06-21T04:15:10.349Z,19.00
2018-06-21T04:17:39.531Z,19.20
2018-06-21T04:20:08.680Z,19.30
2018-06-21T04:22:37.826Z,19.40
2018-06-21T04:25:06.983Z,19.40
2018-06-21T04:27:36.152Z,19.50
2018-06-21T04:30:05.635Z,19.60
2018-06-21T04:32:34.771Z,19.60
2018-06-21T04:35:03.940Z,19.70
2018-06-21T04:37:33.086Z,19.80
2018-06-21T04:40:02.237Z,19.90
2018-06-21T04:42:31.381Z,19.90
2018-06-21T04:45:00.539Z,20.10
2018-06-21T04:47:29.678Z,20.20
2018-06-21T04:49:58.827Z,20.40
2018-06-21T04:52:27.987Z,20.40
2018-06-21T04:54:57.135Z,20.50
2018-06-21T04:57:26.286Z,20.50
2018-06-21T04:59:55.437Z,20.60
2018-06-21T05:02:24.588Z,20.60
2018-06-21T05:04:53.752Z,20.60
2018-06-21T05:07:22.911Z,20.60
2018-06-21T05:09:52.077Z,20.60
2018-06-21T05:12:22.154Z,20.60
2018-06-21T05:14:53.015Z,20.50
2018-06-21T05:17:22.156Z,20.60
2018-06-21T05:19:51.305Z,20.60
2018-06-21T05:22:20.462Z,20.60
2018-06-21T05:24:49.612Z,20.60
2018-06-21T05:27:18.770Z,20.50
2018-06-21T05:29:47.921Z,20.50
2018-06-21T05:32:17.076Z,20.50
2018-06-21T05:34:46.223Z,20.50
2018-06-21T05:37:15.377Z,20.60
2018-06-21T05:39:44.517Z,20.60
2018-06-21T05:42:13.671Z,20.70
2018-06-21T05:44:42.816Z,20.70
2018-06-21T05:47:12.172Z,20.70
2018-06-21T05:52:10.340Z,20.50
2018-06-21T05:54:39.523Z,20.70
2018-06-21T05:57:08.686Z,20.70
2018-06-21T05:59:41.235Z,20.80
2018-06-21T06:02:10.839Z,20.90
2018-06-21T06:04:40.481Z,21.00
2018-06-21T06:07:10.142Z,21.00
2018-06-21T06:09:40.870Z,21.00
2018-06-21T06:14:39.925Z,21.10
2018-06-21T06:17:10.360Z,21.30
2018-06-21T06:19:40.045Z,21.20
2018-06-21T06:22:09.712Z,21.30
2018-06-21T06:27:09.401Z,21.50
2018-06-21T06:29:39.046Z,21.50
2018-06-21T06:32:08.589Z,21.60
2018-06-21T06:34:38.341Z,21.70
2018-06-21T06:37:07.998Z,21.80
2018-06-21T06:39:37.698Z,21.60
2018-06-21T06:44:36.643Z,21.80
2018-06-21T06:47:07.334Z,22.00
2018-06-21T06:52:26.383Z,22.30
2018-06-21T06:55:33.034Z,22.60
2018-06-21T06:58:07.957Z,22.80
2018-06-21T07:00:37.625Z,22.80
2018-06-21T07:03:09.021Z,22.90
2018-06-21T07:05:38.674Z,23.00
2018-06-21T07:08:09.073Z,23.10
2018-06-21T07:10:39.456Z,23.10
2018-06-21T07:13:09.291Z,23.20
2018-06-21T07:15:42.373Z,23.40
2018-06-21T07:18:15.318Z,23.60
2018-06-21T07:30:44.199Z,23.60
2018-06-21T07:33:27.631Z,23.70
2018-06-21T07:36:44.980Z,23.00
2018-06-21T07:39:18.770Z,22.90
2018-06-21T07:41:48.447Z,22.90
2018-06-21T07:44:18.136Z,23.00
2018-06-21T07:46:57.610Z,23.10
2018-06-21T07:57:36.138Z,23.20
2018-06-21T08:00:58.657Z,23.10
2018-06-21T08:20:00.451Z,23.40
2018-06-21T08:42:40.768Z,23.80
2018-06-21T08:47:54.500Z,23.60
2018-06-21T09:44:34.251Z,24.30
2018-06-21T09:47:51.756Z,24.10
2018-06-21T10:08:09.415Z,24.70
2018-06-21T10:39:17.162Z,24.40
2018-06-21T10:41:53.622Z,24.30
2018-06-21T10:44:49.755Z,24.40
2018-06-21T12:41:44.018Z,21.90
2018-06-21T12:44:18.531Z,21.90
2018-06-21T12:49:46.716Z,20.90
2018-06-21T13:38:51.396Z,18.50
2018-06-21T13:41:23.701Z,18.50
2018-06-21T13:43:54.137Z,18.60
2018-06-21T13:46:26.783Z,18.90
2018-06-21T14:46:45.466Z,24.10
2018-06-21T14:53:15.909Z,24.00
2018-06-21T15:09:59.011Z,24.40
2018-06-21T15:20:40.303Z,23.90
2018-06-21T15:35:55.546Z,22.60
2018-06-21T15:40:51.687Z,22.90
2018-06-21T15:43:21.301Z,22.70
2018-06-21T15:45:56.780Z,23.50
2018-06-21T15:49:28.703Z,23.70
2018-06-21T15:52:23.278Z,23.80
2018-06-21T16:06:19.863Z,23.10
2018-06-21T16:37:43.171Z,21.40
2018-06-21T16:40:14.765Z,22.50
2018-06-21T16:42:44.374Z,22.90
2018-06-21T16:45:14.100Z,22.40
2018-06-21T16:47:47.049Z,22.70
2018-06-21T16:50:22.316Z,22.40
2018-06-21T16:59:41.593Z,22.40
2018-06-21T17:02:24.849Z,22.40
2018-06-21T17:04:59.105Z,22.90
2018-06-21T17:07:29.635Z,23.30
2018-06-21T17:10:07.743Z,23.40
2018-06-21T17:22:51.898Z,22.50
2018-06-21T17:25:24.293Z,22.70
2018-06-21T17:28:01.070Z,22.30
2018-06-21T17:41:39.546Z,21.90
2018-06-21T17:44:10.102Z,22.20
2018-06-21T17:46:39.757Z,21.60
2018-06-21T17:49:25.666Z,21.40
2018-06-21T17:52:01.159Z,21.30
2018-06-21T18:00:43.477Z,21.40
2018-06-21T18:03:15.587Z,20.80
2018-06-21T18:12:32.336Z,20.70
2018-06-21T18:15:09.752Z,20.30
2018-06-21T18:41:49.557Z,17.50
2018-06-21T18:44:48.943Z,17.30
2018-06-21T18:47:20.270Z,17.30
2018-06-21T18:49:49.475Z,17.20
2018-06-21T18:52:18.638Z,17.10
2018-06-21T18:54:47.791Z,17.00
2018-06-21T18:57:16.962Z,16.90
2018-06-21T18:59:46.135Z,16.90
2018-06-21T19:02:15.401Z,16.80
2018-06-21T19:04:44.569Z,16.60
2018-06-21T19:07:19.063Z,16.50
2018-06-21T19:09:53.484Z,16.50
2018-06-21T19:12:22.652Z,16.40
2018-06-21T19:14:51.821Z,16.40
2018-06-21T19:17:20.996Z,16.30
2018-06-21T19:19:50.168Z,16.20
2018-06-21T19:22:19.342Z,16.20
2018-06-21T19:24:48.454Z,16.10
2018-06-21T19:27:18.712Z,16.00
2018-06-21T19:29:48.188Z,16.10
2018-06-21T19:32:17.480Z,16.10
2018-06-21T19:34:46.606Z,15.90
2018-06-21T19:37:15.884Z,15.70
2018-06-21T19:39:45.090Z,15.80
2018-06-21T19:42:14.296Z,15.70
2018-06-21T19:44:43.453Z,15.70
2018-06-21T19:47:12.589Z,15.60
2018-06-21T19:49:41.828Z,15.60
2018-06-21T19:52:10.952Z,15.40
2018-06-21T19:54:40.141Z,15.40
2018-06-21T19:57:09.329Z,15.30
2018-06-21T19:59:38.471Z,15.20
2018-06-21T20:02:07.731Z,15.30
2018-06-21T20:04:36.927Z,15.20
2018-06-21T20:07:06.147Z,15.20
2018-06-21T20:09:35.314Z,15.10
2018-06-21T20:12:04.459Z,15.10
2018-06-21T20:14:33.671Z,15.10
2018-06-21T20:17:02.870Z,15.00
2018-06-21T20:19:36.096Z,15.00
2018-06-21T20:22:05.243Z,14.80
2018-06-21T20:24:34.404Z,14.70
2018-06-21T20:27:03.551Z,14.60
2018-06-21T20:29:32.716Z,14.70
2018-06-21T20:32:01.854Z,14.60
2018-06-21T20:34:31.041Z,14.60
2018-06-21T20:37:00.312Z,14.40
2018-06-21T20:39:29.464Z,14.40
2018-06-21T20:41:58.616Z,14.30
2018-06-21T20:44:27.803Z,14.30
2018-06-21T20:46:56.964Z,14.30
2018-06-21T20:49:26.240Z,14.20
2018-06-21T20:51:55.409Z,14.10
2018-06-21T20:54:24.546Z,14.00
2018-06-21T20:56:53.753Z,14.00
2018-06-21T20:59:22.895Z,14.00
2018-06-21T21:01:52.072Z,13.90
2018-06-21T21:04:22.732Z,13.80
2018-06-21T21:06:51.908Z,13.80
2018-06-21T21:09:21.118Z,13.80
2018-06-21T21:11:50.361Z,13.70
2018-06-21T21:14:19.531Z,13.70
2018-06-21T21:16:48.723Z,13.60
2018-06-21T21:19:17.932Z,13.50
2018-06-21T21:21:47.140Z,13.50
2018-06-21T21:24:16.363Z,13.50
2018-06-21T21:26:45.664Z,13.40
2018-06-21T21:29:14.835Z,13.30
2018-06-21T21:31:44.223Z,13.20
2018-06-21T21:34:13.288Z,13.30
2018-06-21T21:36:42.496Z,13.20
2018-06-21T21:39:11.692Z,13.30
2018-06-21T21:41:40.860Z,13.30
2018-06-21T21:44:10.035Z,13.10
2018-06-21T21:46:39.195Z,13.10
2018-06-21T21:49:08.343Z,13.10
2018-06-21T21:51:37.491Z,13.10
2018-06-21T21:54:06.652Z,13.00
2018-06-21T21:56:35.803Z,13.00
2018-06-21T21:59:04.974Z,12.90
2018-06-21T22:01:34.189Z,12.80
2018-06-21T22:04:03.349Z,12.70
2018-06-21T22:06:32.556Z,12.60
2018-06-21T22:09:01.775Z,12.60
2018-06-21T22:11:30.964Z,12.60
2018-06-21T22:14:05.762Z,12.50
2018-06-21T22:16:36.354Z,12.60
2018-06-21T22:19:05.528Z,12.60
2018-06-21T22:21:34.773Z,12.60
2018-06-21T22:24:03.959Z,12.50
2018-06-21T22:26:33.120Z,12.40
2018-06-21T22:29:02.262Z,12.30
2018-06-21T22:31:31.410Z,12.20
2018-06-21T22:34:00.637Z,12.20
2018-06-21T22:36:29.801Z,12.30
2018-06-21T22:38:58.957Z,12.30
2018-06-21T22:41:28.118Z,12.20
2018-06-21T22:43:57.294Z,12.10
2018-06-21T22:46:26.459Z,12.10
2018-06-21T22:48:55.707Z,12.00
2018-06-21T22:51:24.887Z,12.00
2018-06-21T22:53:54.055Z,12.00
2018-06-21T22:56:23.224Z,11.90
2018-06-21T22:58:52.389Z,11.80
2018-06-21T23:01:21.561Z,11.80
2018-06-21T23:03:50.770Z,11.70
2018-06-21T23:06:19.927Z,11.70
2018-06-21T23:08:49.080Z,11.60
2018-06-21T23:11:18.277Z,11.50
2018-06-21T23:13:47.456Z,11.40
2018-06-21T23:16:16.621Z,11.40
2018-06-21T23:19:02.746Z,11.40
2018-06-21T23:21:31.915Z,11.40
2018-06-21T23:24:01.074Z,11.30
2018-06-21T23:26:30.244Z,11.30
2018-06-21T23:28:59.395Z,11.30
2018-06-21T23:31:28.564Z,11.30
2018-06-21T23:33:57.718Z,11.30
2018-06-21T23:36:26.877Z,11.30
2018-06-21T23:38:56.042Z,11.30
2018-06-21T23:41:25.209Z,11.40
2018-06-21T23:43:54.372Z,11.30
2018-06-21T23:46:23.576Z,11.20
2018-06-21T23:48:52.727Z,11.20
2018-06-21T23:51:21.900Z,11.10
2018-06-21T23:53:51.066Z,11.10
2018-06-21T23:56:20.225Z,11.10
2018-06-21T23:58:49.397Z,11.00
